sensor_id;sensor_type;location;lat;lon;timestamp;P1;durP1;ratioP1;P2;durP2;ratioP2
84745;SDS011;74975;51.922;6.480;2024-02-26T00:02:12;5.45;;;3.90;;
84745;SDS011;74975;51.922;6.480;2024-02-26T00:04:48;4.78;;;3.38;;
84745;SDS011;74975;51.922;6.480;2024-02-26T00:07:23;5.95;;;3.72;;
84745;SDS011;74975;51.922;6.480;2024-02-26T00:09:58;5.97;;;3.95;;
84745;SDS011;74975;51.922;6.480;2024-02-26T00:12:36;5.70;;;3.55;;
84745;SDS011;74975;51.922;6.480;2024-02-26T00:15:06;5.45;;;3.88;;
84745;SDS011;74975;51.922;6.480;2024-02-26T00:17:36;8.43;;;4.13;;
84745;SDS011;74975;51.922;6.480;2024-02-26T00:20:02;5.72;;;3.97;;
84745;SDS011;74975;51.922;6.480;2024-02-26T00:22:30;6.63;;;3.78;;
84745;SDS011;74975;51.922;6.480;2024-02-26T00:25:02;4.07;;;3.55;;
84745;SDS011;74975;51.922;6.480;2024-02-26T00:27:31;5.47;;;3.65;;
84745;SDS011;74975;51.922;6.480;2024-02-26T00:30:00;5.72;;;3.13;;
84745;SDS011;74975;51.922;6.480;2024-02-26T00:32:27;4.60;;;3.60;;
84745;SDS011;74975;51.922;6.480;2024-02-26T00:37:24;4.85;;;3.60;;
84745;SDS011;74975;51.922;6.480;2024-02-26T00:39:55;5.05;;;3.58;;
84745;SDS011;74975;51.922;6.480;2024-02-26T00:42:20;4.90;;;3.45;;
84745;SDS011;74975;51.922;6.480;2024-02-26T00:44:50;5.88;;;3.70;;
84745;SDS011;74975;51.922;6.480;2024-02-26T00:47:18;6.07;;;4.70;;
84745;SDS011;74975;51.922;6.480;2024-02-26T00:49:52;6.18;;;3.63;;
84745;SDS011;74975;51.922;6.480;2024-02-26T00:52:21;4.93;;;3.55;;
84745;SDS011;74975;51.922;6.480;2024-02-26T00:54:53;10.27;;;3.95;;
84745;SDS011;74975;51.922;6.480;2024-02-26T00:57:26;6.93;;;3.97;;
84745;SDS011;74975;51.922;6.480;2024-02-26T00:59:58;5.13;;;3.42;;
84745;SDS011;74975;51.922;6.480;2024-02-26T01:02:31;5.90;;;3.92;;
84745;SDS011;74975;51.922;6.480;2024-02-26T01:05:07;4.85;;;3.63;;
84745;SDS011;74975;51.922;6.480;2024-02-26T01:07:35;4.70;;;3.03;;
84745;SDS011;74975;51.922;6.480;2024-02-26T01:10:01;4.22;;;3.65;;
84745;SDS011;74975;51.922;6.480;2024-02-26T01:12:32;5.38;;;3.58;;
84745;SDS011;74975;51.922;6.480;2024-02-26T01:14:59;6.50;;;3.90;;
84745;SDS011;74975;51.922;6.480;2024-02-26T01:17:34;5.00;;;3.50;;
84745;SDS011;74975;51.922;6.480;2024-02-26T01:20:04;5.22;;;3.67;;
84745;SDS011;74975;51.922;6.480;2024-02-26T01:22:35;4.95;;;3.33;;
84745;SDS011;74975;51.922;6.480;2024-02-26T01:25:07;4.30;;;3.03;;
84745;SDS011;74975;51.922;6.480;2024-02-26T01:27:41;3.95;;;3.38;;
84745;SDS011;74975;51.922;6.480;2024-02-26T01:30:16;4.35;;;3.13;;
84745;SDS011;74975;51.922;6.480;2024-02-26T01:32:51;4.78;;;3.17;;
84745;SDS011;74975;51.922;6.480;2024-02-26T01:35:22;4.95;;;3.35;;
84745;SDS011;74975;51.922;6.480;2024-02-26T01:37:54;4.10;;;3.22;;
84745;SDS011;74975;51.922;6.480;2024-02-26T01:40:19;5.57;;;3.88;;
84745;SDS011;74975;51.922;6.480;2024-02-26T01:42:52;5.13;;;3.33;;
84745;SDS011;74975;51.922;6.480;2024-02-26T01:45:18;4.82;;;3.58;;
84745;SDS011;74975;51.922;6.480;2024-02-26T01:47:55;6.13;;;4.28;;
84745;SDS011;74975;51.922;6.480;2024-02-26T01:50:25;5.35;;;3.35;;
84745;SDS011;74975;51.922;6.480;2024-02-26T01:52:55;4.32;;;3.42;;
84745;SDS011;74975;51.922;6.480;2024-02-26T01:55:22;5.28;;;4.43;;
84745;SDS011;74975;51.922;6.480;2024-02-26T01:57:56;5.40;;;3.70;;
84745;SDS011;74975;51.922;6.480;2024-02-26T02:00:29;5.75;;;3.85;;
84745;SDS011;74975;51.922;6.480;2024-02-26T02:02:55;4.85;;;3.33;;
84745;SDS011;74975;51.922;6.480;2024-02-26T02:05:21;4.07;;;3.05;;
84745;SDS011;74975;51.922;6.480;2024-02-26T02:07:47;5.28;;;3.45;;
84745;SDS011;74975;51.922;6.480;2024-02-26T02:10:22;4.68;;;2.90;;
84745;SDS011;74975;51.922;6.480;2024-02-26T02:12:54;3.75;;;3.00;;
84745;SDS011;74975;51.922;6.480;2024-02-26T02:15:20;3.85;;;2.67;;
84745;SDS011;74975;51.922;6.480;2024-02-26T02:17:49;4.68;;;2.67;;
84745;SDS011;74975;51.922;6.480;2024-02-26T02:20:39;5.88;;;3.60;;
84745;SDS011;74975;51.922;6.480;2024-02-26T02:23:08;3.80;;;3.15;;
84745;SDS011;74975;51.922;6.480;2024-02-26T02:25:49;4.47;;;3.33;;
84745;SDS011;74975;51.922;6.480;2024-02-26T02:28:26;4.88;;;3.80;;
84745;SDS011;74975;51.922;6.480;2024-02-26T02:30:54;6.60;;;3.50;;
84745;SDS011;74975;51.922;6.480;2024-02-26T02:33:21;4.22;;;3.40;;
84745;SDS011;74975;51.922;6.480;2024-02-26T02:35:53;5.05;;;3.70;;
84745;SDS011;74975;51.922;6.480;2024-02-26T02:38:24;3.80;;;3.30;;
84745;SDS011;74975;51.922;6.480;2024-02-26T02:41:00;4.60;;;3.65;;
84745;SDS011;74975;51.922;6.480;2024-02-26T02:43:34;5.13;;;3.80;;
84745;SDS011;74975;51.922;6.480;2024-02-26T02:46:07;4.50;;;3.45;;
84745;SDS011;74975;51.922;6.480;2024-02-26T02:48:42;5.13;;;3.30;;
84745;SDS011;74975;51.922;6.480;2024-02-26T02:51:21;4.63;;;3.40;;
84745;SDS011;74975;51.922;6.480;2024-02-26T02:53:53;5.93;;;3.53;;
84745;SDS011;74975;51.922;6.480;2024-02-26T02:56:22;6.22;;;3.30;;
84745;SDS011;74975;51.922;6.480;2024-02-26T02:58:47;4.93;;;3.20;;
84745;SDS011;74975;51.922;6.480;2024-02-26T03:01:18;5.18;;;2.85;;
84745;SDS011;74975;51.922;6.480;2024-02-26T03:06:22;3.90;;;2.92;;
84745;SDS011;74975;51.922;6.480;2024-02-26T03:08:48;3.20;;;2.47;;
84745;SDS011;74975;51.922;6.480;2024-02-26T03:11:15;3.75;;;2.60;;
84745;SDS011;74975;51.922;6.480;2024-02-26T03:13:45;3.40;;;2.28;;
84745;SDS011;74975;51.922;6.480;2024-02-26T03:16:19;3.25;;;2.35;;
84745;SDS011;74975;51.922;6.480;2024-02-26T03:18:51;3.42;;;2.45;;
84745;SDS011;74975;51.922;6.480;2024-02-26T03:21:24;5.82;;;3.10;;
84745;SDS011;74975;51.922;6.480;2024-02-26T03:23:50;3.85;;;2.65;;
84745;SDS011;74975;51.922;6.480;2024-02-26T03:26:26;3.50;;;2.65;;
84745;SDS011;74975;51.922;6.480;2024-02-26T03:29:00;4.15;;;3.25;;
84745;SDS011;74975;51.922;6.480;2024-02-26T03:31:27;3.60;;;2.80;;
84745;SDS011;74975;51.922;6.480;2024-02-26T03:33:57;5.22;;;3.20;;
84745;SDS011;74975;51.922;6.480;2024-02-26T03:36:23;3.50;;;2.60;;
84745;SDS011;74975;51.922;6.480;2024-02-26T03:38:55;3.72;;;2.97;;
84745;SDS011;74975;51.922;6.480;2024-02-26T03:41:25;2.88;;;2.47;;
84745;SDS011;74975;51.922;6.480;2024-02-26T03:43:57;4.38;;;3.78;;
84745;SDS011;74975;51.922;6.480;2024-02-26T03:46:35;3.95;;;2.60;;
84745;SDS011;74975;51.922;6.480;2024-02-26T03:49:05;4.28;;;3.50;;
84745;SDS011;74975;51.922;6.480;2024-02-26T03:51:47;3.88;;;2.75;;
84745;SDS011;74975;51.922;6.480;2024-02-26T03:54:16;4.00;;;3.30;;
84745;SDS011;74975;51.922;6.480;2024-02-26T03:56:45;5.43;;;2.40;;
84745;SDS011;74975;51.922;6.480;2024-02-26T03:59:18;5.10;;;3.65;;
84745;SDS011;74975;51.922;6.480;2024-02-26T04:01:55;4.05;;;3.65;;
84745;SDS011;74975;51.922;6.480;2024-02-26T04:04:20;3.50;;;2.33;;
84745;SDS011;74975;51.922;6.480;2024-02-26T04:06:51;3.78;;;2.30;;
84745;SDS011;74975;51.922;6.480;2024-02-26T04:09:26;2.83;;;2.55;;
84745;SDS011;74975;51.922;6.480;2024-02-26T04:11:53;5.57;;;3.15;;
84745;SDS011;74975;51.922;6.480;2024-02-26T04:14:26;4.72;;;3.15;;
84745;SDS011;74975;51.922;6.480;2024-02-26T04:16:58;6.80;;;3.83;;
84745;SDS011;74975;51.922;6.480;2024-02-26T04:19:32;4.20;;;3.33;;
84745;SDS011;74975;51.922;6.480;2024-02-26T04:24:31;3.10;;;2.50;;
84745;SDS011;74975;51.922;6.480;2024-02-26T04:27:07;4.18;;;3.13;;
84745;SDS011;74975;51.922;6.480;2024-02-26T04:29:42;5.00;;;3.45;;
84745;SDS011;74975;51.922;6.480;2024-02-26T04:32:13;4.60;;;3.08;;
84745;SDS011;74975;51.922;6.480;2024-02-26T04:34:45;3.25;;;2.80;;
84745;SDS011;74975;51.922;6.480;2024-02-26T04:37:13;3.95;;;2.95;;
84745;SDS011;74975;51.922;6.480;2024-02-26T04:39:48;3.33;;;2.20;;
84745;SDS011;74975;51.922;6.480;2024-02-26T04:42:25;4.65;;;2.90;;
84745;SDS011;74975;51.922;6.480;2024-02-26T04:44:55;2.88;;;2.42;;
84745;SDS011;74975;51.922;6.480;2024-02-26T04:47:30;7.22;;;4.72;;
84745;SDS011;74975;51.922;6.480;2024-02-26T04:50:03;3.45;;;2.75;;
84745;SDS011;74975;51.922;6.480;2024-02-26T04:52:33;3.72;;;2.88;;
84745;SDS011;74975;51.922;6.480;2024-02-26T04:55:10;4.80;;;2.95;;
84745;SDS011;74975;51.922;6.480;2024-02-26T04:57:42;3.72;;;2.50;;
84745;SDS011;74975;51.922;6.480;2024-02-26T05:00:10;3.30;;;2.50;;
84745;SDS011;74975;51.922;6.480;2024-02-26T05:02:38;3.50;;;2.92;;
84745;SDS011;74975;51.922;6.480;2024-02-26T05:05:08;3.90;;;2.55;;
84745;SDS011;74975;51.922;6.480;2024-02-26T05:07:40;7.93;;;3.80;;
84745;SDS011;74975;51.922;6.480;2024-02-26T05:10:07;4.10;;;2.85;;
84745;SDS011;74975;51.922;6.480;2024-02-26T05:12:41;8.63;;;6.13;;
84745;SDS011;74975;51.922;6.480;2024-02-26T05:15:17;5.78;;;4.55;;
84745;SDS011;74975;51.922;6.480;2024-02-26T05:17:49;5.65;;;4.00;;
84745;SDS011;74975;51.922;6.480;2024-02-26T05:20:22;5.57;;;3.88;;
84745;SDS011;74975;51.922;6.480;2024-02-26T05:22:54;7.07;;;4.32;;
84745;SDS011;74975;51.922;6.480;2024-02-26T05:25:34;4.75;;;4.25;;
84745;SDS011;74975;51.922;6.480;2024-02-26T05:28:06;3.88;;;3.40;;
84745;SDS011;74975;51.922;6.480;2024-02-26T05:30:33;5.32;;;3.50;;
84745;SDS011;74975;51.922;6.480;2024-02-26T05:33:05;7.85;;;6.50;;
84745;SDS011;74975;51.922;6.480;2024-02-26T05:35:34;4.53;;;3.38;;
84745;SDS011;74975;51.922;6.480;2024-02-26T05:40:52;4.18;;;3.35;;
84745;SDS011;74975;51.922;6.480;2024-02-26T05:43:25;6.53;;;4.68;;
84745;SDS011;74975;51.922;6.480;2024-02-26T05:46:04;4.72;;;3.40;;
84745;SDS011;74975;51.922;6.480;2024-02-26T05:48:40;5.15;;;3.20;;
84745;SDS011;74975;51.922;6.480;2024-02-26T05:51:12;6.65;;;4.95;;
84745;SDS011;74975;51.922;6.480;2024-02-26T05:53:38;8.75;;;4.00;;
84745;SDS011;74975;51.922;6.480;2024-02-26T05:56:18;5.25;;;3.60;;
84745;SDS011;74975;51.922;6.480;2024-02-26T05:58:51;6.28;;;4.07;;
84745;SDS011;74975;51.922;6.480;2024-02-26T06:01:17;5.72;;;3.60;;
84745;SDS011;74975;51.922;6.480;2024-02-26T06:03:53;4.18;;;3.50;;
84745;SDS011;74975;51.922;6.480;2024-02-26T06:06:30;5.97;;;5.35;;
84745;SDS011;74975;51.922;6.480;2024-02-26T06:09:06;6.05;;;4.47;;
84745;SDS011;74975;51.922;6.480;2024-02-26T06:11:34;5.10;;;4.03;;
84745;SDS011;74975;51.922;6.480;2024-02-26T06:14:05;3.58;;;3.20;;
84745;SDS011;74975;51.922;6.480;2024-02-26T06:16:31;11.50;;;5.28;;
84745;SDS011;74975;51.922;6.480;2024-02-26T06:18:58;5.72;;;4.57;;
84745;SDS011;74975;51.922;6.480;2024-02-26T06:21:34;4.30;;;3.35;;
84745;SDS011;74975;51.922;6.480;2024-02-26T06:24:02;4.07;;;3.15;;
84745;SDS011;74975;51.922;6.480;2024-02-26T06:29:01;6.25;;;4.25;;
84745;SDS011;74975;51.922;6.480;2024-02-26T06:31:40;6.35;;;4.35;;
84745;SDS011;74975;51.922;6.480;2024-02-26T06:34:40;3.47;;;2.72;;
84745;SDS011;74975;51.922;6.480;2024-02-26T06:37:17;3.45;;;2.92;;
84745;SDS011;74975;51.922;6.480;2024-02-26T06:39:56;5.72;;;3.10;;
84745;SDS011;74975;51.922;6.480;2024-02-26T06:42:32;5.00;;;4.60;;
84745;SDS011;74975;51.922;6.480;2024-02-26T06:45:07;5.97;;;4.10;;
84745;SDS011;74975;51.922;6.480;2024-02-26T06:47:43;4.68;;;4.13;;
84745;SDS011;74975;51.922;6.480;2024-02-26T06:50:17;4.55;;;3.55;;
84745;SDS011;74975;51.922;6.480;2024-02-26T06:52:51;5.20;;;4.25;;
84745;SDS011;74975;51.922;6.480;2024-02-26T06:55:25;4.70;;;3.63;;
84745;SDS011;74975;51.922;6.480;2024-02-26T06:57:51;4.53;;;3.92;;
84745;SDS011;74975;51.922;6.480;2024-02-26T07:00:30;5.88;;;4.28;;
84745;SDS011;74975;51.922;6.480;2024-02-26T07:03:02;3.97;;;3.58;;
84745;SDS011;74975;51.922;6.480;2024-02-26T07:05:38;6.35;;;5.25;;
84745;SDS011;74975;51.922;6.480;2024-02-26T07:08:07;6.25;;;4.82;;
84745;SDS011;74975;51.922;6.480;2024-02-26T07:10:39;3.80;;;3.10;;
84745;SDS011;74975;51.922;6.480;2024-02-26T07:13:20;5.40;;;4.22;;
84745;SDS011;74975;51.922;6.480;2024-02-26T07:16:13;5.03;;;4.22;;
84745;SDS011;74975;51.922;6.480;2024-02-26T07:19:29;6.68;;;5.50;;
84745;SDS011;74975;51.922;6.480;2024-02-26T07:21:57;4.38;;;3.42;;
84745;SDS011;74975;51.922;6.480;2024-02-26T07:24:39;4.30;;;3.50;;
84745;SDS011;74975;51.922;6.480;2024-02-26T07:27:22;8.07;;;4.38;;
84745;SDS011;74975;51.922;6.480;2024-02-26T07:33:19;4.80;;;3.65;;
84745;SDS011;74975;51.922;6.480;2024-02-26T07:36:04;8.20;;;4.50;;
84745;SDS011;74975;51.922;6.480;2024-02-26T07:38:58;3.40;;;3.05;;
84745;SDS011;74975;51.922;6.480;2024-02-26T07:41:37;5.32;;;4.00;;
84745;SDS011;74975;51.922;6.480;2024-02-26T07:44:20;4.82;;;4.32;;
84745;SDS011;74975;51.922;6.480;2024-02-26T07:47:06;5.03;;;3.63;;
84745;SDS011;74975;51.922;6.480;2024-02-26T07:49:46;5.07;;;4.25;;
84745;SDS011;74975;51.922;6.480;2024-02-26T07:52:28;4.13;;;2.95;;
84745;SDS011;74975;51.922;6.480;2024-02-26T07:58:07;5.32;;;4.35;;
84745;SDS011;74975;51.922;6.480;2024-02-26T08:01:22;4.60;;;3.90;;
84745;SDS011;74975;51.922;6.480;2024-02-26T08:04:14;5.18;;;3.70;;
84745;SDS011;74975;51.922;6.480;2024-02-26T08:07:07;8.48;;;4.38;;
84745;SDS011;74975;51.922;6.480;2024-02-26T08:09:57;4.55;;;3.45;;
84745;SDS011;74975;51.922;6.480;2024-02-26T08:12:30;3.17;;;2.55;;
84745;SDS011;74975;51.922;6.480;2024-02-26T08:14:59;2.13;;;1.77;;
84745;SDS011;74975;51.922;6.480;2024-02-26T08:17:38;5.13;;;3.85;;
84745;SDS011;74975;51.922;6.480;2024-02-26T08:20:18;3.63;;;2.35;;
84745;SDS011;74975;51.922;6.480;2024-02-26T08:22:47;5.03;;;3.65;;
84745;SDS011;74975;51.922;6.480;2024-02-26T08:25:19;4.65;;;3.90;;
84745;SDS011;74975;51.922;6.480;2024-02-26T08:27:45;4.30;;;3.35;;
84745;SDS011;74975;51.922;6.480;2024-02-26T08:30:19;3.88;;;3.47;;
84745;SDS011;74975;51.922;6.480;2024-02-26T08:32:50;6.10;;;3.90;;
84745;SDS011;74975;51.922;6.480;2024-02-26T08:35:19;3.47;;;2.85;;
84745;SDS011;74975;51.922;6.480;2024-02-26T08:37:47;6.63;;;4.47;;
84745;SDS011;74975;51.922;6.480;2024-02-26T08:40:25;8.68;;;3.22;;
84745;SDS011;74975;51.922;6.480;2024-02-26T08:43:01;5.20;;;4.15;;
84745;SDS011;74975;51.922;6.480;2024-02-26T08:45:36;6.18;;;3.78;;
84745;SDS011;74975;51.922;6.480;2024-02-26T08:48:02;6.10;;;3.95;;
84745;SDS011;74975;51.922;6.480;2024-02-26T08:50:32;5.35;;;3.72;;
84745;SDS011;74975;51.922;6.480;2024-02-26T08:53:09;5.40;;;3.50;;
84745;SDS011;74975;51.922;6.480;2024-02-26T08:55:45;4.65;;;4.03;;
84745;SDS011;74975;51.922;6.480;2024-02-26T08:58:17;5.28;;;3.90;;
84745;SDS011;74975;51.922;6.480;2024-02-26T09:00:47;5.72;;;4.95;;
84745;SDS011;74975;51.922;6.480;2024-02-26T09:03:22;7.50;;;5.10;;
84745;SDS011;74975;51.922;6.480;2024-02-26T09:06:02;5.32;;;4.70;;
84745;SDS011;74975;51.922;6.480;2024-02-26T09:08:32;6.55;;;5.53;;
84745;SDS011;74975;51.922;6.480;2024-02-26T09:11:04;6.25;;;3.83;;
84745;SDS011;74975;51.922;6.480;2024-02-26T09:16:19;6.25;;;4.18;;
84745;SDS011;74975;51.922;6.480;2024-02-26T09:18:48;4.75;;;3.53;;
84745;SDS011;74975;51.922;6.480;2024-02-26T09:21:34;5.85;;;4.35;;
84745;SDS011;74975;51.922;6.480;2024-02-26T09:24:00;5.93;;;5.32;;
84745;SDS011;74975;51.922;6.480;2024-02-26T09:26:51;6.47;;;5.00;;
84745;SDS011;74975;51.922;6.480;2024-02-26T09:29:45;5.97;;;4.65;;
84745;SDS011;74975;51.922;6.480;2024-02-26T09:32:24;6.32;;;4.70;;
84745;SDS011;74975;51.922;6.480;2024-02-26T09:35:22;7.40;;;6.18;;
84745;SDS011;74975;51.922;6.480;2024-02-26T09:37:56;9.45;;;5.75;;
84745;SDS011;74975;51.922;6.480;2024-02-26T09:40:32;5.63;;;4.25;;
84745;SDS011;74975;51.922;6.480;2024-02-26T09:43:09;5.50;;;4.82;;
84745;SDS011;74975;51.922;6.480;2024-02-26T09:45:40;6.45;;;4.90;;
84745;SDS011;74975;51.922;6.480;2024-02-26T09:48:17;9.48;;;6.30;;
84745;SDS011;74975;51.922;6.480;2024-02-26T09:50:56;7.57;;;5.63;;
84745;SDS011;74975;51.922;6.480;2024-02-26T09:53:22;9.35;;;5.55;;
84745;SDS011;74975;51.922;6.480;2024-02-26T09:55:55;8.75;;;6.22;;
84745;SDS011;74975;51.922;6.480;2024-02-26T09:58:24;8.45;;;5.28;;
84745;SDS011;74975;51.922;6.480;2024-02-26T10:00:58;7.07;;;4.88;;
84745;SDS011;74975;51.922;6.480;2024-02-26T10:04:15;6.00;;;4.63;;
84745;SDS011;74975;51.922;6.480;2024-02-26T10:06:29;8.80;;;6.75;;
84745;SDS011;74975;51.922;6.480;2024-02-26T10:08:59;7.85;;;6.93;;
84745;SDS011;74975;51.922;6.480;2024-02-26T10:11:29;10.73;;;8.52;;
84745;SDS011;74975;51.922;6.480;2024-02-26T10:14:02;9.93;;;6.72;;
84745;SDS011;74975;51.922;6.480;2024-02-26T10:16:43;9.25;;;5.13;;
84745;SDS011;74975;51.922;6.480;2024-02-26T10:19:24;7.60;;;4.47;;
84745;SDS011;74975;51.922;6.480;2024-02-26T10:21:53;6.72;;;5.25;;
84745;SDS011;74975;51.922;6.480;2024-02-26T10:24:24;8.95;;;5.60;;
84745;SDS011;74975;51.922;6.480;2024-02-26T10:26:59;6.05;;;5.10;;
84745;SDS011;74975;51.922;6.480;2024-02-26T10:29:29;11.02;;;5.93;;
84745;SDS011;74975;51.922;6.480;2024-02-26T10:32:04;8.35;;;6.50;;
84745;SDS011;74975;51.922;6.480;2024-02-26T10:34:29;6.47;;;4.57;;
84745;SDS011;74975;51.922;6.480;2024-02-26T10:37:06;11.20;;;8.85;;
84745;SDS011;74975;51.922;6.480;2024-02-26T10:39:39;10.88;;;7.13;;
84745;SDS011;74975;51.922;6.480;2024-02-26T10:42:15;7.38;;;4.78;;
84745;SDS011;74975;51.922;6.480;2024-02-26T10:44:51;10.68;;;5.68;;
84745;SDS011;74975;51.922;6.480;2024-02-26T10:47:24;10.27;;;7.53;;
84745;SDS011;74975;51.922;6.480;2024-02-26T10:50:01;9.32;;;8.43;;
84745;SDS011;74975;51.922;6.480;2024-02-26T10:52:36;8.50;;;6.72;;
84745;SDS011;74975;51.922;6.480;2024-02-26T10:55:13;9.65;;;7.95;;
84745;SDS011;74975;51.922;6.480;2024-02-26T10:57:51;8.82;;;5.18;;
84745;SDS011;74975;51.922;6.480;2024-02-26T11:00:28;14.55;;;9.35;;
84745;SDS011;74975;51.922;6.480;2024-02-26T11:03:04;14.05;;;6.47;;
84745;SDS011;74975;51.922;6.480;2024-02-26T11:05:38;9.73;;;5.50;;
84745;SDS011;74975;51.922;6.480;2024-02-26T11:08:13;10.45;;;6.50;;
84745;SDS011;74975;51.922;6.480;2024-02-26T11:10:41;8.93;;;5.00;;
84745;SDS011;74975;51.922;6.480;2024-02-26T11:13:18;7.32;;;4.70;;
84745;SDS011;74975;51.922;6.480;2024-02-26T11:15:46;12.95;;;7.75;;
84745;SDS011;74975;51.922;6.480;2024-02-26T11:18:18;13.63;;;9.88;;
84745;SDS011;74975;51.922;6.480;2024-02-26T11:20:54;16.65;;;11.65;;
84745;SDS011;74975;51.922;6.480;2024-02-26T11:23:26;12.07;;;8.48;;
84745;SDS011;74975;51.922;6.480;2024-02-26T11:25:57;14.40;;;9.80;;
84745;SDS011;74975;51.922;6.480;2024-02-26T11:28:29;15.93;;;11.68;;
84745;SDS011;74975;51.922;6.480;2024-02-26T11:31:00;12.95;;;7.80;;
84745;SDS011;74975;51.922;6.480;2024-02-26T11:33:38;9.60;;;6.75;;
84745;SDS011;74975;51.922;6.480;2024-02-26T11:36:10;20.88;;;10.20;;
84745;SDS011;74975;51.922;6.480;2024-02-26T11:38:43;22.48;;;14.00;;
84745;SDS011;74975;51.922;6.480;2024-02-26T11:41:24;10.75;;;6.30;;
84745;SDS011;74975;51.922;6.480;2024-02-26T11:44:05;16.42;;;10.02;;
84745;SDS011;74975;51.922;6.480;2024-02-26T11:46:45;19.17;;;11.98;;
84745;SDS011;74975;51.922;6.480;2024-02-26T11:52:10;19.90;;;13.00;;
84745;SDS011;74975;51.922;6.480;2024-02-26T11:54:58;16.73;;;10.88;;
84745;SDS011;74975;51.922;6.480;2024-02-26T12:00:40;22.88;;;13.77;;
84745;SDS011;74975;51.922;6.480;2024-02-26T12:03:22;17.98;;;11.48;;
84745;SDS011;74975;51.922;6.480;2024-02-26T12:09:16;17.67;;;11.30;;
84745;SDS011;74975;51.922;6.480;2024-02-26T12:12:36;16.08;;;11.55;;
84745;SDS011;74975;51.922;6.480;2024-02-26T12:15:35;16.05;;;8.45;;
84745;SDS011;74975;51.922;6.480;2024-02-26T12:18:22;15.88;;;9.57;;
84745;SDS011;74975;51.922;6.480;2024-02-26T12:21:07;17.20;;;12.20;;
84745;SDS011;74975;51.922;6.480;2024-02-26T12:23:50;18.63;;;8.93;;
84745;SDS011;74975;51.922;6.480;2024-02-26T12:26:41;21.85;;;14.75;;
84745;SDS011;74975;51.922;6.480;2024-02-26T12:29:20;14.90;;;7.78;;
84745;SDS011;74975;51.922;6.480;2024-02-26T12:38:38;19.10;;;11.90;;
84745;SDS011;74975;51.922;6.480;2024-02-26T12:41:19;8.43;;;4.88;;
84745;SDS011;74975;51.922;6.480;2024-02-26T12:47:50;16.70;;;11.60;;
84745;SDS011;74975;51.922;6.480;2024-02-26T12:50:34;14.55;;;7.93;;
84745;SDS011;74975;51.922;6.480;2024-02-26T12:53:19;16.08;;;8.15;;
84745;SDS011;74975;51.922;6.480;2024-02-26T12:55:59;12.77;;;7.32;;
84745;SDS011;74975;51.922;6.480;2024-02-26T12:58:53;15.88;;;9.70;;
84745;SDS011;74975;51.922;6.480;2024-02-26T13:01:40;13.77;;;7.88;;
84745;SDS011;74975;51.922;6.480;2024-02-26T13:04:15;13.30;;;8.48;;
84745;SDS011;74975;51.922;6.480;2024-02-26T13:07:07;10.68;;;7.07;;
84745;SDS011;74975;51.922;6.480;2024-02-26T13:10:01;14.95;;;10.55;;
84745;SDS011;74975;51.922;6.480;2024-02-26T13:12:56;15.48;;;10.80;;
84745;SDS011;74975;51.922;6.480;2024-02-26T13:18:56;8.90;;;5.57;;
84745;SDS011;74975;51.922;6.480;2024-02-26T13:21:37;10.75;;;6.20;;
84745;SDS011;74975;51.922;6.480;2024-02-26T13:24:16;13.80;;;6.80;;
84745;SDS011;74975;51.922;6.480;2024-02-26T13:27:02;13.25;;;8.30;;
84745;SDS011;74975;51.922;6.480;2024-02-26T13:29:41;14.68;;;8.98;;
84745;SDS011;74975;51.922;6.480;2024-02-26T13:32:20;12.75;;;7.32;;
84745;SDS011;74975;51.922;6.480;2024-02-26T13:35:06;14.63;;;7.97;;
84745;SDS011;74975;51.922;6.480;2024-02-26T13:37:51;14.45;;;9.57;;
84745;SDS011;74975;51.922;6.480;2024-02-26T13:40:22;15.27;;;8.57;;
84745;SDS011;74975;51.922;6.480;2024-02-26T13:43:01;9.23;;;6.57;;
84745;SDS011;74975;51.922;6.480;2024-02-26T13:45:38;12.05;;;7.05;;
84745;SDS011;74975;51.922;6.480;2024-02-26T13:48:14;14.38;;;8.00;;
84745;SDS011;74975;51.922;6.480;2024-02-26T13:50:51;13.57;;;7.25;;
84745;SDS011;74975;51.922;6.480;2024-02-26T13:53:28;10.93;;;7.82;;
84745;SDS011;74975;51.922;6.480;2024-02-26T13:55:59;16.50;;;8.20;;
84745;SDS011;74975;51.922;6.480;2024-02-26T14:01:24;9.90;;;6.43;;
84745;SDS011;74975;51.922;6.480;2024-02-26T14:04:01;11.38;;;6.70;;
84745;SDS011;74975;51.922;6.480;2024-02-26T14:06:35;12.00;;;6.68;;
84745;SDS011;74975;51.922;6.480;2024-02-26T14:09:05;14.77;;;6.55;;
84745;SDS011;74975;51.922;6.480;2024-02-26T14:11:49;11.40;;;7.18;;
84745;SDS011;74975;51.922;6.480;2024-02-26T14:14:21;20.63;;;7.68;;
84745;SDS011;74975;51.922;6.480;2024-02-26T14:17:13;16.88;;;12.13;;
84745;SDS011;74975;51.922;6.480;2024-02-26T14:20:04;10.60;;;6.93;;
84745;SDS011;74975;51.922;6.480;2024-02-26T14:22:38;10.70;;;5.70;;
84745;SDS011;74975;51.922;6.480;2024-02-26T14:25:04;12.38;;;6.45;;
84745;SDS011;74975;51.922;6.480;2024-02-26T14:27:34;9.85;;;5.13;;
84745;SDS011;74975;51.922;6.480;2024-02-26T14:30:09;16.30;;;11.18;;
84745;SDS011;74975;51.922;6.480;2024-02-26T14:32:41;9.25;;;6.03;;
84745;SDS011;74975;51.922;6.480;2024-02-26T14:35:09;15.35;;;10.18;;
84745;SDS011;74975;51.922;6.480;2024-02-26T14:40:06;12.15;;;6.95;;
84745;SDS011;74975;51.922;6.480;2024-02-26T14:42:37;8.77;;;4.78;;
84745;SDS011;74975;51.922;6.480;2024-02-26T14:45:06;12.65;;;7.72;;
84745;SDS011;74975;51.922;6.480;2024-02-26T14:47:37;14.02;;;7.13;;
84745;SDS011;74975;51.922;6.480;2024-02-26T14:50:05;7.30;;;5.78;;
84745;SDS011;74975;51.922;6.480;2024-02-26T14:52:38;11.40;;;6.38;;
84745;SDS011;74975;51.922;6.480;2024-02-26T14:55:11;15.70;;;7.53;;
84745;SDS011;74975;51.922;6.480;2024-02-26T14:57:41;10.18;;;5.30;;
84745;SDS011;74975;51.922;6.480;2024-02-26T15:00:18;7.82;;;5.45;;
84745;SDS011;74975;51.922;6.480;2024-02-26T15:02:53;10.40;;;6.93;;
84745;SDS011;74975;51.922;6.480;2024-02-26T15:05:25;7.90;;;6.00;;
84745;SDS011;74975;51.922;6.480;2024-02-26T15:07:56;6.15;;;4.45;;
84745;SDS011;74975;51.922;6.480;2024-02-26T15:10:28;12.27;;;7.05;;
84745;SDS011;74975;51.922;6.480;2024-02-26T15:12:57;8.50;;;4.55;;
84745;SDS011;74975;51.922;6.480;2024-02-26T15:15:27;5.82;;;4.47;;
84745;SDS011;74975;51.922;6.480;2024-02-26T15:17:59;8.45;;;5.18;;
84745;SDS011;74975;51.922;6.480;2024-02-26T15:20:30;10.75;;;6.35;;
84745;SDS011;74975;51.922;6.480;2024-02-26T15:22:56;10.02;;;5.55;;
84745;SDS011;74975;51.922;6.480;2024-02-26T15:25:25;8.27;;;4.88;;
84745;SDS011;74975;51.922;6.480;2024-02-26T15:27:56;5.40;;;3.63;;
84745;SDS011;74975;51.922;6.480;2024-02-26T15:30:23;11.75;;;6.25;;
84745;SDS011;74975;51.922;6.480;2024-02-26T15:33:12;7.43;;;5.85;;
84745;SDS011;74975;51.922;6.480;2024-02-26T15:36:00;7.85;;;6.22;;
84745;SDS011;74975;51.922;6.480;2024-02-26T15:38:34;11.43;;;5.85;;
84745;SDS011;74975;51.922;6.480;2024-02-26T15:41:15;11.35;;;6.80;;
84745;SDS011;74975;51.922;6.480;2024-02-26T15:43:42;12.15;;;5.68;;
84745;SDS011;74975;51.922;6.480;2024-02-26T15:46:13;5.22;;;4.57;;
84745;SDS011;74975;51.922;6.480;2024-02-26T15:48:43;6.05;;;4.60;;
84745;SDS011;74975;51.922;6.480;2024-02-26T15:51:22;10.70;;;6.93;;
84745;SDS011;74975;51.922;6.480;2024-02-26T15:53:54;4.30;;;3.20;;
84745;SDS011;74975;51.922;6.480;2024-02-26T15:56:29;9.88;;;6.80;;
84745;SDS011;74975;51.922;6.480;2024-02-26T15:58:57;11.02;;;7.20;;
84745;SDS011;74975;51.922;6.480;2024-02-26T16:01:29;8.52;;;4.45;;
84745;SDS011;74975;51.922;6.480;2024-02-26T16:04:01;10.98;;;5.60;;
84745;SDS011;74975;51.922;6.480;2024-02-26T16:06:41;11.02;;;6.97;;
84745;SDS011;74975;51.922;6.480;2024-02-26T16:09:09;11.35;;;8.45;;
84745;SDS011;74975;51.922;6.480;2024-02-26T16:11:45;9.98;;;6.18;;
84745;SDS011;74975;51.922;6.480;2024-02-26T16:17:27;12.15;;;7.43;;
84745;SDS011;74975;51.922;6.480;2024-02-26T16:20:06;8.40;;;5.63;;
84745;SDS011;74975;51.922;6.480;2024-02-26T16:22:41;14.45;;;7.32;;